sensor_id;sensor_type;location;lat;lon;timestamp;P1;durP1;ratioP1;P2;durP2;ratioP2
73421;SDS011;61637;47.760;-122.022;2022-12-13T00:00:02;30.8;;;9.7;;
73421;SDS011;61637;47.760;-122.022;2022-12-13T00:02:01;35.4;;;11.8;;
73421;SDS011;61637;47.760;-122.022;2022-12-13T00:04:03;34.0;;;13.2;;
73421;SDS011;61637;47.760;-122.022;2022-12-13T00:06:03;30.5;;;10.3;;
73421;SDS011;61637;47.760;-122.022;2022-12-13T00:08:01;24.4;;;9.4;;
73421;SDS011;61637;47.760;-122.022;2022-12-13T00:10:02;18.0;;;7.3;;
73421;SDS011;61637;47.760;-122.022;2022-12-13T00:12:01;12.2;;;4.8;;
73421;SDS011;61637;47.760;-122.022;2022-12-13T00:14:01;11.5;;;5.2;;
73421;SDS011;61637;47.760;-122.022;2022-12-13T00:16:03;11.8;;;5.9;;
73421;SDS011;61637;47.760;-122.022;2022-12-13T00:18:01;12.9;;;8.0;;
73421;SDS011;61637;47.760;-122.022;2022-12-13T00:20:01;11.4;;;9.1;;
73421;SDS011;61637;47.760;-122.022;2022-12-13T00:22:01;12.4;;;6.8;;
73421;SDS011;61637;47.760;-122.022;2022-12-13T00:24:04;9.6;;;5.2;;
73421;SDS011;61637;47.760;-122.022;2022-12-13T00:26:02;9.0;;;5.3;;
73421;SDS011;61637;47.760;-122.022;2022-12-13T00:28:02;8.4;;;4.3;;
73421;SDS011;61637;47.760;-122.022;2022-12-13T00:30:01;7.9;;;4.1;;
73421;SDS011;61637;47.760;-122.022;2022-12-13T00:32:01;9.6;;;4.3;;
73421;SDS011;61637;47.760;-122.022;2022-12-13T00:34:01;9.9;;;4.6;;
73421;SDS011;61637;47.760;-122.022;2022-12-13T00:36:03;8.8;;;4.2;;
73421;SDS011;61637;47.760;-122.022;2022-12-13T00:38:01;8.4;;;4.5;;
73421;SDS011;61637;47.760;-122.022;2022-12-13T00:40:01;7.7;;;3.9;;
73421;SDS011;61637;47.760;-122.022;2022-12-13T00:42:01;10.1;;;4.6;;
73421;SDS011;61637;47.760;-122.022;2022-12-13T00:44:02;9.2;;;4.8;;
73421;SDS011;61637;47.760;-122.022;2022-12-13T00:46:01;9.6;;;4.8;;
73421;SDS011;61637;47.760;-122.022;2022-12-13T00:48:01;9.3;;;4.9;;
73421;SDS011;61637;47.760;-122.022;2022-12-13T00:50:01;8.3;;;3.9;;
73421;SDS011;61637;47.760;-122.022;2022-12-13T00:52:01;9.8;;;4.6;;
73421;SDS011;61637;47.760;-122.022;2022-12-13T00:54:01;8.4;;;3.6;;
73421;SDS011;61637;47.760;-122.022;2022-12-13T00:56:02;7.8;;;4.1;;
73421;SDS011;61637;47.760;-122.022;2022-12-13T00:58:01;5.8;;;2.7;;
73421;SDS011;61637;47.760;-122.022;2022-12-13T01:00:01;7.3;;;3.0;;
73421;SDS011;61637;47.760;-122.022;2022-12-13T01:02:01;7.0;;;3.6;;
73421;SDS011;61637;47.760;-122.022;2022-12-13T01:04:03;6.8;;;3.3;;
73421;SDS011;61637;47.760;-122.022;2022-12-13T01:06:01;7.7;;;2.9;;
73421;SDS011;61637;47.760;-122.022;2022-12-13T01:08:01;6.3;;;2.9;;
73421;SDS011;61637;47.760;-122.022;2022-12-13T01:10:02;6.8;;;3.6;;
73421;SDS011;61637;47.760;-122.022;2022-12-13T01:12:03;6.0;;;2.9;;
73421;SDS011;61637;47.760;-122.022;2022-12-13T01:14:01;6.2;;;3.1;;
73421;SDS011;61637;47.760;-122.022;2022-12-13T01:16:04;6.2;;;2.8;;
73421;SDS011;61637;47.760;-122.022;2022-12-13T01:18:01;7.3;;;3.2;;
73421;SDS011;61637;47.760;-122.022;2022-12-13T01:20:01;6.9;;;3.2;;
73421;SDS011;61637;47.760;-122.022;2022-12-13T01:22:03;6.3;;;3.8;;
73421;SDS011;61637;47.760;-122.022;2022-12-13T01:24:02;6.8;;;3.0;;
73421;SDS011;61637;47.760;-122.022;2022-12-13T01:26:03;6.1;;;2.3;;
73421;SDS011;61637;47.760;-122.022;2022-12-13T01:28:01;5.1;;;2.1;;
73421;SDS011;61637;47.760;-122.022;2022-12-13T01:30:01;7.7;;;2.3;;
73421;SDS011;61637;47.760;-122.022;2022-12-13T01:32:01;5.3;;;1.7;;
73421;SDS011;61637;47.760;-122.022;2022-12-13T01:34:01;6.0;;;2.1;;
73421;SDS011;61637;47.760;-122.022;2022-12-13T01:36:03;9.4;;;2.7;;
73421;SDS011;61637;47.760;-122.022;2022-12-13T01:38:01;5.9;;;1.9;;
73421;SDS011;61637;47.760;-122.022;2022-12-13T01:40:02;5.4;;;2.0;;
73421;SDS011;61637;47.760;-122.022;2022-12-13T01:42:02;6.9;;;2.1;;
73421;SDS011;61637;47.760;-122.022;2022-12-13T01:44:03;5.7;;;2.1;;
73421;SDS011;61637;47.760;-122.022;2022-12-13T01:46:01;4.9;;;2.2;;
73421;SDS011;61637;47.760;-122.022;2022-12-13T01:48:04;5.9;;;2.0;;
73421;SDS011;61637;47.760;-122.022;2022-12-13T01:50:03;4.9;;;1.9;;
73421;SDS011;61637;47.760;-122.022;2022-12-13T01:52:05;6.7;;;2.0;;
73421;SDS011;61637;47.760;-122.022;2022-12-13T01:54:02;4.6;;;1.9;;
73421;SDS011;61637;47.760;-122.022;2022-12-13T01:56:04;4.6;;;1.8;;
73421;SDS011;61637;47.760;-122.022;2022-12-13T01:58:02;5.7;;;1.8;;
73421;SDS011;61637;47.760;-122.022;2022-12-13T02:00:03;4.9;;;1.5;;
73421;SDS011;61637;47.760;-122.022;2022-12-13T02:02:01;4.8;;;1.8;;
73421;SDS011;61637;47.760;-122.022;2022-12-13T02:04:02;5.0;;;1.6;;
73421;SDS011;61637;47.760;-122.022;2022-12-13T02:06:05;6.6;;;1.9;;
73421;SDS011;61637;47.760;-122.022;2022-12-13T02:08:02;5.3;;;2.1;;
73421;SDS011;61637;47.760;-122.022;2022-12-13T02:10:03;6.9;;;2.8;;
73421;SDS011;61637;47.760;-122.022;2022-12-13T02:12:02;5.7;;;2.9;;
73421;SDS011;61637;47.760;-122.022;2022-12-13T02:14:02;6.6;;;2.2;;
73421;SDS011;61637;47.760;-122.022;2022-12-13T02:16:09;5.5;;;1.8;;
73421;SDS011;61637;47.760;-122.022;2022-12-13T02:18:07;5.2;;;1.9;;
73421;SDS011;61637;47.760;-122.022;2022-12-13T02:20:17;5.6;;;1.8;;
73421;SDS011;61637;47.760;-122.022;2022-12-13T02:22:09;7.9;;;2.1;;
73421;SDS011;61637;47.760;-122.022;2022-12-13T02:24:17;6.4;;;2.2;;
73421;SDS011;61637;47.760;-122.022;2022-12-13T02:26:20;5.3;;;2.1;;
73421;SDS011;61637;47.760;-122.022;2022-12-13T02:28:14;6.0;;;2.1;;
73421;SDS011;61637;47.760;-122.022;2022-12-13T02:30:16;4.9;;;1.8;;
73421;SDS011;61637;47.760;-122.022;2022-12-13T02:32:06;5.8;;;2.2;;
73421;SDS011;61637;47.760;-122.022;2022-12-13T02:34:06;5.0;;;2.1;;
73421;SDS011;61637;47.760;-122.022;2022-12-13T02:36:08;5.3;;;1.9;;
73421;SDS011;61637;47.760;-122.022;2022-12-13T02:38:07;5.3;;;1.9;;
73421;SDS011;61637;47.760;-122.022;2022-12-13T02:40:12;5.7;;;2.0;;
73421;SDS011;61637;47.760;-122.022;2022-12-13T02:42:04;6.8;;;2.1;;
73421;SDS011;61637;47.760;-122.022;2022-12-13T02:44:05;5.3;;;2.2;;
73421;SDS011;61637;47.760;-122.022;2022-12-13T02:46:03;6.3;;;2.2;;
73421;SDS011;61637;47.760;-122.022;2022-12-13T02:48:03;6.5;;;2.1;;
73421;SDS011;61637;47.760;-122.022;2022-12-13T02:50:04;5.3;;;2.0;;
73421;SDS011;61637;47.760;-122.022;2022-12-13T02:52:02;6.0;;;2.1;;
73421;SDS011;61637;47.760;-122.022;2022-12-13T02:54:02;6.8;;;2.3;;
73421;SDS011;61637;47.760;-122.022;2022-12-13T02:56:01;6.2;;;2.9;;
73421;SDS011;61637;47.760;-122.022;2022-12-13T02:58:01;6.8;;;5.0;;
73421;SDS011;61637;47.760;-122.022;2022-12-13T03:00:06;6.9;;;5.2;;
73421;SDS011;61637;47.760;-122.022;2022-12-13T03:02:09;6.7;;;4.5;;
73421;SDS011;61637;47.760;-122.022;2022-12-13T03:04:08;6.9;;;3.6;;
73421;SDS011;61637;47.760;-122.022;2022-12-13T03:06:12;7.7;;;4.2;;
73421;SDS011;61637;47.760;-122.022;2022-12-13T03:08:14;6.6;;;4.0;;
73421;SDS011;61637;47.760;-122.022;2022-12-13T03:10:05;8.0;;;5.0;;
73421;SDS011;61637;47.760;-122.022;2022-12-13T03:12:12;9.7;;;8.4;;
73421;SDS011;61637;47.760;-122.022;2022-12-13T03:14:06;7.6;;;6.5;;
73421;SDS011;61637;47.760;-122.022;2022-12-13T03:16:05;6.5;;;5.3;;
73421;SDS011;61637;47.760;-122.022;2022-12-13T03:18:05;7.5;;;4.7;;
73421;SDS011;61637;47.760;-122.022;2022-12-13T03:20:01;7.9;;;5.5;;
73421;SDS011;61637;47.760;-122.022;2022-12-13T03:22:04;7.6;;;6.5;;
73421;SDS011;61637;47.760;-122.022;2022-12-13T03:24:01;9.6;;;8.6;;
73421;SDS011;61637;47.760;-122.022;2022-12-13T03:26:05;14.2;;;12.8;;
73421;SDS011;61637;47.760;-122.022;2022-12-13T03:28:01;14.3;;;12.5;;
73421;SDS011;61637;47.760;-122.022;2022-12-13T03:30:01;17.2;;;15.5;;
73421;SDS011;61637;47.760;-122.022;2022-12-13T03:32:01;17.2;;;15.7;;
73421;SDS011;61637;47.760;-122.022;2022-12-13T03:34:01;19.0;;;17.3;;
73421;SDS011;61637;47.760;-122.022;2022-12-13T03:36:02;16.5;;;15.1;;
73421;SDS011;61637;47.760;-122.022;2022-12-13T03:38:02;16.6;;;15.1;;
73421;SDS011;61637;47.760;-122.022;2022-12-13T03:40:01;16.0;;;14.6;;
73421;SDS011;61637;47.760;-122.022;2022-12-13T03:42:01;17.2;;;15.6;;
73421;SDS011;61637;47.760;-122.022;2022-12-13T03:44:04;17.7;;;15.9;;
73421;SDS011;61637;47.760;-122.022;2022-12-13T03:46:01;17.3;;;15.5;;
73421;SDS011;61637;47.760;-122.022;2022-12-13T03:48:01;18.3;;;16.6;;
73421;SDS011;61637;47.760;-122.022;2022-12-13T03:50:01;19.0;;;17.2;;
73421;SDS011;61637;47.760;-122.022;2022-12-13T03:52:02;19.5;;;17.6;;
73421;SDS011;61637;47.760;-122.022;2022-12-13T03:54:01;18.9;;;16.1;;
73421;SDS011;61637;47.760;-122.022;2022-12-13T03:56:04;19.7;;;17.7;;
73421;SDS011;61637;47.760;-122.022;2022-12-13T03:58:01;20.7;;;18.6;;
73421;SDS011;61637;47.760;-122.022;2022-12-13T04:00:03;20.3;;;18.3;;
73421;SDS011;61637;47.760;-122.022;2022-12-13T04:02:01;21.5;;;19.4;;
73421;SDS011;61637;47.760;-122.022;2022-12-13T04:04:01;24.1;;;21.7;;
73421;SDS011;61637;47.760;-122.022;2022-12-13T04:06:01;23.8;;;21.5;;
73421;SDS011;61637;47.760;-122.022;2022-12-13T04:08:01;21.9;;;19.9;;
73421;SDS011;61637;47.760;-122.022;2022-12-13T04:10:01;21.2;;;19.1;;
73421;SDS011;61637;47.760;-122.022;2022-12-13T04:12:01;20.7;;;18.8;;
73421;SDS011;61637;47.760;-122.022;2022-12-13T04:14:01;20.0;;;18.0;;
73421;SDS011;61637;47.760;-122.022;2022-12-13T04:16:01;23.8;;;21.3;;
73421;SDS011;61637;47.760;-122.022;2022-12-13T04:18:01;24.9;;;22.4;;
73421;SDS011;61637;47.760;-122.022;2022-12-13T04:20:01;25.3;;;22.9;;
73421;SDS011;61637;47.760;-122.022;2022-12-13T04:22:01;23.5;;;21.2;;
73421;SDS011;61637;47.760;-122.022;2022-12-13T04:24:01;23.6;;;21.4;;
73421;SDS011;61637;47.760;-122.022;2022-12-13T04:26:01;23.6;;;21.4;;
73421;SDS011;61637;47.760;-122.022;2022-12-13T04:28:01;23.5;;;21.2;;
73421;SDS011;61637;47.760;-122.022;2022-12-13T04:30:01;20.4;;;18.5;;
73421;SDS011;61637;47.760;-122.022;2022-12-13T04:32:01;22.2;;;20.0;;
73421;SDS011;61637;47.760;-122.022;2022-12-13T04:34:01;24.4;;;22.0;;
73421;SDS011;61637;47.760;-122.022;2022-12-13T04:36:01;20.9;;;19.0;;
73421;SDS011;61637;47.760;-122.022;2022-12-13T04:38:01;22.5;;;20.4;;
73421;SDS011;61637;47.760;-122.022;2022-12-13T04:40:02;20.8;;;18.8;;
73421;SDS011;61637;47.760;-122.022;2022-12-13T04:42:03;21.7;;;19.5;;
73421;SDS011;61637;47.760;-122.022;2022-12-13T04:44:02;21.7;;;19.6;;
73421;SDS011;61637;47.760;-122.022;2022-12-13T04:46:01;20.7;;;18.9;;
73421;SDS011;61637;47.760;-122.022;2022-12-13T04:48:02;20.4;;;18.5;;
73421;SDS011;61637;47.760;-122.022;2022-12-13T04:50:01;21.5;;;19.2;;
73421;SDS011;61637;47.760;-122.022;2022-12-13T04:52:02;22.1;;;20.0;;
73421;SDS011;61637;47.760;-122.022;2022-12-13T04:54:01;25.5;;;23.0;;
73421;SDS011;61637;47.760;-122.022;2022-12-13T04:56:03;27.1;;;24.2;;
73421;SDS011;61637;47.760;-122.022;2022-12-13T04:58:01;31.0;;;28.0;;
73421;SDS011;61637;47.760;-122.022;2022-12-13T05:00:01;37.8;;;34.1;;
73421;SDS011;61637;47.760;-122.022;2022-12-13T05:02:01;30.9;;;27.7;;
73421;SDS011;61637;47.760;-122.022;2022-12-13T05:04:02;31.8;;;28.6;;
73421;SDS011;61637;47.760;-122.022;2022-12-13T05:06:04;31.3;;;28.2;;
73421;SDS011;61637;47.760;-122.022;2022-12-13T05:08:01;37.3;;;33.3;;
73421;SDS011;61637;47.760;-122.022;2022-12-13T05:10:01;28.6;;;24.5;;
73421;SDS011;61637;47.760;-122.022;2022-12-13T05:12:01;30.6;;;26.8;;
73421;SDS011;61637;47.760;-122.022;2022-12-13T05:14:01;24.1;;;21.6;;
73421;SDS011;61637;47.760;-122.022;2022-12-13T05:16:04;22.3;;;20.2;;
73421;SDS011;61637;47.760;-122.022;2022-12-13T05:18:02;22.0;;;19.9;;
73421;SDS011;61637;47.760;-122.022;2022-12-13T05:20:01;22.4;;;20.2;;
73421;SDS011;61637;47.760;-122.022;2022-12-13T05:22:01;21.8;;;19.7;;
73421;SDS011;61637;47.760;-122.022;2022-12-13T05:24:02;22.0;;;19.9;;
73421;SDS011;61637;47.760;-122.022;2022-12-13T05:26:01;22.3;;;20.2;;
73421;SDS011;61637;47.760;-122.022;2022-12-13T05:28:01;21.9;;;19.8;;
73421;SDS011;61637;47.760;-122.022;2022-12-13T05:30:01;21.7;;;19.6;;
73421;SDS011;61637;47.760;-122.022;2022-12-13T05:32:01;22.1;;;19.9;;
73421;SDS011;61637;47.760;-122.022;2022-12-13T05:34:01;22.0;;;20.0;;
73421;SDS011;61637;47.760;-122.022;2022-12-13T05:36:02;24.8;;;19.7;;
73421;SDS011;61637;47.760;-122.022;2022-12-13T05:38:02;21.3;;;19.4;;
73421;SDS011;61637;47.760;-122.022;2022-12-13T05:40:01;19.8;;;17.9;;
73421;SDS011;61637;47.760;-122.022;2022-12-13T05:42:01;20.7;;;18.7;;
73421;SDS011;61637;47.760;-122.022;2022-12-13T05:44:01;20.8;;;18.8;;
73421;SDS011;61637;47.760;-122.022;2022-12-13T05:46:01;19.8;;;17.9;;
73421;SDS011;61637;47.760;-122.022;2022-12-13T05:48:01;20.2;;;18.3;;
73421;SDS011;61637;47.760;-122.022;2022-12-13T05:50:01;20.0;;;18.3;;
73421;SDS011;61637;47.760;-122.022;2022-12-13T05:52:01;21.9;;;19.8;;
73421;SDS011;61637;47.760;-122.022;2022-12-13T05:54:01;20.7;;;18.7;;
73421;SDS011;61637;47.760;-122.022;2022-12-13T05:56:02;20.0;;;18.1;;
73421;SDS011;61637;47.760;-122.022;2022-12-13T05:58:01;21.8;;;19.7;;
73421;SDS011;61637;47.760;-122.022;2022-12-13T06:00:02;20.2;;;18.4;;
73421;SDS011;61637;47.760;-122.022;2022-12-13T06:02:01;21.0;;;19.0;;
73421;SDS011;61637;47.760;-122.022;2022-12-13T06:04:01;19.6;;;17.8;;
73421;SDS011;61637;47.760;-122.022;2022-12-13T06:06:01;20.4;;;18.3;;
73421;SDS011;61637;47.760;-122.022;2022-12-13T06:08:01;19.2;;;17.4;;
73421;SDS011;61637;47.760;-122.022;2022-12-13T06:10:01;19.5;;;17.8;;
73421;SDS011;61637;47.760;-122.022;2022-12-13T06:12:02;19.2;;;17.5;;
73421;SDS011;61637;47.760;-122.022;2022-12-13T06:14:01;18.8;;;17.0;;
73421;SDS011;61637;47.760;-122.022;2022-12-13T06:16:03;19.1;;;17.5;;
73421;SDS011;61637;47.760;-122.022;2022-12-13T06:18:01;20.0;;;18.1;;
73421;SDS011;61637;47.760;-122.022;2022-12-13T06:20:01;19.6;;;17.9;;
73421;SDS011;61637;47.760;-122.022;2022-12-13T06:22:01;19.4;;;17.6;;
73421;SDS011;61637;47.760;-122.022;2022-12-13T06:24:01;19.2;;;17.5;;
73421;SDS011;61637;47.760;-122.022;2022-12-13T06:26:01;19.5;;;17.7;;
73421;SDS011;61637;47.760;-122.022;2022-12-13T06:28:01;20.5;;;18.6;;
73421;SDS011;61637;47.760;-122.022;2022-12-13T06:30:01;21.5;;;19.4;;
73421;SDS011;61637;47.760;-122.022;2022-12-13T06:32:01;20.8;;;19.0;;
73421;SDS011;61637;47.760;-122.022;2022-12-13T06:34:02;21.1;;;19.2;;
73421;SDS011;61637;47.760;-122.022;2022-12-13T06:36:01;19.3;;;17.5;;
73421;SDS011;61637;47.760;-122.022;2022-12-13T06:38:01;20.1;;;18.4;;
73421;SDS011;61637;47.760;-122.022;2022-12-13T06:40:01;22.2;;;19.9;;
73421;SDS011;61637;47.760;-122.022;2022-12-13T06:42:03;19.0;;;17.2;;
73421;SDS011;61637;47.760;-122.022;2022-12-13T06:44:01;19.3;;;17.7;;
73421;SDS011;61637;47.760;-122.022;2022-12-13T06:46:03;18.1;;;16.5;;
73421;SDS011;61637;47.760;-122.022;2022-12-13T06:48:01;18.1;;;16.5;;
73421;SDS011;61637;47.760;-122.022;2022-12-13T06:50:01;19.0;;;17.3;;
73421;SDS011;61637;47.760;-122.022;2022-12-13T06:52:01;19.7;;;17.9;;
73421;SDS011;61637;47.760;-122.022;2022-12-13T06:54:01;17.9;;;16.1;;
73421;SDS011;61637;47.760;-122.022;2022-12-13T06:56:03;19.2;;;17.3;;
73421;SDS011;61637;47.760;-122.022;2022-12-13T06:58:01;20.1;;;18.4;;
73421;SDS011;61637;47.760;-122.022;2022-12-13T07:00:01;19.9;;;18.1;;
73421;SDS011;61637;47.760;-122.022;2022-12-13T07:02:01;19.4;;;17.7;;
73421;SDS011;61637;47.760;-122.022;2022-12-13T07:04:01;19.0;;;17.3;;
73421;SDS011;61637;47.760;-122.022;2022-12-13T07:06:05;19.3;;;17.6;;
73421;SDS011;61637;47.760;-122.022;2022-12-13T07:08:01;19.1;;;17.3;;
73421;SDS011;61637;47.760;-122.022;2022-12-13T07:10:01;18.2;;;16.6;;
73421;SDS011;61637;47.760;-122.022;2022-12-13T07:12:01;18.5;;;16.8;;
73421;SDS011;61637;47.760;-122.022;2022-12-13T07:14:01;18.9;;;17.3;;
73421;SDS011;61637;47.760;-122.022;2022-12-13T07:16:01;18.7;;;17.0;;
73421;SDS011;61637;47.760;-122.022;2022-12-13T07:18:01;19.7;;;18.0;;
73421;SDS011;61637;47.760;-122.022;2022-12-13T07:20:04;20.2;;;18.4;;
73421;SDS011;61637;47.760;-122.022;2022-12-13T07:22:02;22.0;;;20.1;;
73421;SDS011;61637;47.760;-122.022;2022-12-13T07:24:01;24.2;;;21.7;;
73421;SDS011;61637;47.760;-122.022;2022-12-13T07:26:01;20.5;;;18.6;;
73421;SDS011;61637;47.760;-122.022;2022-12-13T07:28:03;20.5;;;18.7;;
73421;SDS011;61637;47.760;-122.022;2022-12-13T07:30:01;20.1;;;18.1;;
73421;SDS011;61637;47.760;-122.022;2022-12-13T07:32:01;19.5;;;17.9;;
73421;SDS011;61637;47.760;-122.022;2022-12-13T07:34:01;19.9;;;18.3;;
73421;SDS011;61637;47.760;-122.022;2022-12-13T07:36:02;19.0;;;17.1;;
73421;SDS011;61637;47.760;-122.022;2022-12-13T07:38:01;19.2;;;17.4;;
73421;SDS011;61637;47.760;-122.022;2022-12-13T07:40:01;18.5;;;16.9;;
73421;SDS011;61637;47.760;-122.022;2022-12-13T07:42:01;19.8;;;18.1;;
73421;SDS011;61637;47.760;-122.022;2022-12-13T07:44:01;20.1;;;18.2;;
73421;SDS011;61637;47.760;-122.022;2022-12-13T07:46:03;18.4;;;16.9;;
73421;SDS011;61637;47.760;-122.022;2022-12-13T07:48:05;19.0;;;17.3;;
73421;SDS011;61637;47.760;-122.022;2022-12-13T07:50:01;19.0;;;17.3;;
73421;SDS011;61637;47.760;-122.022;2022-12-13T07:52:01;19.7;;;18.0;;
73421;SDS011;61637;47.760;-122.022;2022-12-13T07:54:01;20.2;;;18.5;;
73421;SDS011;61637;47.760;-122.022;2022-12-13T07:56:01;19.7;;;17.9;;
73421;SDS011;61637;47.760;-122.022;2022-12-13T07:58:03;19.2;;;17.6;;
73421;SDS011;61637;47.760;-122.022;2022-12-13T08:00:01;18.2;;;16.6;;
73421;SDS011;61637;47.760;-122.022;2022-12-13T08:02:01;18.5;;;17.0;;
73421;SDS011;61637;47.760;-122.022;2022-12-13T08:04:02;17.3;;;15.8;;
73421;SDS011;61637;47.760;-122.022;2022-12-13T08:06:02;17.2;;;15.7;;
73421;SDS011;61637;47.760;-122.022;2022-12-13T08:08:04;18.0;;;16.5;;
73421;SDS011;61637;47.760;-122.022;2022-12-13T08:10:02;17.9;;;16.4;;
73421;SDS011;61637;47.760;-122.022;2022-12-13T08:12:01;18.0;;;16.5;;
73421;SDS011;61637;47.760;-122.022;2022-12-13T08:14:01;17.8;;;16.2;;
73421;SDS011;61637;47.760;-122.022;2022-12-13T08:16:04;17.7;;;16.1;;
73421;SDS011;61637;47.760;-122.022;2022-12-13T08:18:01;17.9;;;16.3;;
73421;SDS011;61637;47.760;-122.022;2022-12-13T08:20:01;18.1;;;16.6;;
73421;SDS011;61637;47.760;-122.022;2022-12-13T08:22:01;18.8;;;17.0;;
73421;SDS011;61637;47.760;-122.022;2022-12-13T08:24:01;18.2;;;16.5;;
73421;SDS011;61637;47.760;-122.022;2022-12-13T08:26:02;17.5;;;16.0;;
73421;SDS011;61637;47.760;-122.022;2022-12-13T08:28:01;17.5;;;16.0;;
73421;SDS011;61637;47.760;-122.022;2022-12-13T08:30:01;18.8;;;17.2;;
73421;SDS011;61637;47.760;-122.022;2022-12-13T08:32:03;18.3;;;16.8;;
73421;SDS011;61637;47.760;-122.022;2022-12-13T08:34:01;18.1;;;16.5;;
73421;SDS011;61637;47.760;-122.022;2022-12-13T08:36:08;17.7;;;16.2;;
73421;SDS011;61637;47.760;-122.022;2022-12-13T08:38:01;17.9;;;16.3;;
73421;SDS011;61637;47.760;-122.022;2022-12-13T08:40:01;17.9;;;16.4;;
73421;SDS011;61637;47.760;-122.022;2022-12-13T08:42:03;18.3;;;16.8;;
73421;SDS011;61637;47.760;-122.022;2022-12-13T08:44:01;17.6;;;16.1;;
73421;SDS011;61637;47.760;-122.022;2022-12-13T08:46:02;19.4;;;17.7;;
73421;SDS011;61637;47.760;-122.022;2022-12-13T08:48:01;19.3;;;17.6;;
73421;SDS011;61637;47.760;-122.022;2022-12-13T08:50:01;17.7;;;16.2;;
73421;SDS011;61637;47.760;-122.022;2022-12-13T08:52:01;16.9;;;15.3;;
73421;SDS011;61637;47.760;-122.022;2022-12-13T08:54:01;17.9;;;16.4;;
73421;SDS011;61637;47.760;-122.022;2022-12-13T08:56:01;16.8;;;15.3;;
73421;SDS011;61637;47.760;-122.022;2022-12-13T08:58:03;16.2;;;14.8;;
73421;SDS011;61637;47.760;-122.022;2022-12-13T09:00:02;17.1;;;15.6;;
73421;SDS011;61637;47.760;-122.022;2022-12-13T09:02:01;17.4;;;15.9;;
73421;SDS011;61637;47.760;-122.022;2022-12-13T09:04:01;18.0;;;16.5;;
73421;SDS011;61637;47.760;-122.022;2022-12-13T09:06:06;19.9;;;18.1;;
73421;SDS011;61637;47.760;-122.022;2022-12-13T09:08:02;19.4;;;17.7;;
73421;SDS011;61637;47.760;-122.022;2022-12-13T09:10:01;19.1;;;17.4;;
73421;SDS011;61637;47.760;-122.022;2022-12-13T09:12:01;20.0;;;18.0;;
73421;SDS011;61637;47.760;-122.022;2022-12-13T09:14:01;20.1;;;18.4;;
73421;SDS011;61637;47.760;-122.022;2022-12-13T09:16:04;18.7;;;17.2;;
73421;SDS011;61637;47.760;-122.022;2022-12-13T09:18:02;22.2;;;18.1;;
73421;SDS011;61637;47.760;-122.022;2022-12-13T09:20:01;19.4;;;17.6;;
73421;SDS011;61637;47.760;-122.022;2022-12-13T09:22:01;18.0;;;16.5;;
73421;SDS011;61637;47.760;-122.022;2022-12-13T09:24:01;17.9;;;16.4;;
73421;SDS011;61637;47.760;-122.022;2022-12-13T09:26:02;18.9;;;17.1;;
73421;SDS011;61637;47.760;-122.022;2022-12-13T09:28:01;18.1;;;16.6;;
73421;SDS011;61637;47.760;-122.022;2022-12-13T09:30:02;17.7;;;16.2;;
73421;SDS011;61637;47.760;-122.022;2022-12-13T09:32:01;17.2;;;15.8;;
73421;SDS011;61637;47.760;-122.022;2022-12-13T09:34:01;20.6;;;17.0;;
73421;SDS011;61637;47.760;-122.022;2022-12-13T09:36:03;18.3;;;16.7;;
73421;SDS011;61637;47.760;-122.022;2022-12-13T09:38:01;18.7;;;17.2;;
73421;SDS011;61637;47.760;-122.022;2022-12-13T09:40:01;20.5;;;18.4;;
73421;SDS011;61637;47.760;-122.022;2022-12-13T09:42:01;18.6;;;16.5;;
73421;SDS011;61637;47.760;-122.022;2022-12-13T09:44:05;20.8;;;18.0;;
73421;SDS011;61637;47.760;-122.022;2022-12-13T09:46:07;34.1;;;18.9;;
73421;SDS011;61637;47.760;-122.022;2022-12-13T09:48:01;20.4;;;18.4;;
73421;SDS011;61637;47.760;-122.022;2022-12-13T09:50:04;18.5;;;16.8;;
73421;SDS011;61637;47.760;-122.022;2022-12-13T09:52:03;19.9;;;17.9;;
73421;SDS011;61637;47.760;-122.022;2022-12-13T09:54:01;20.3;;;17.3;;
73421;SDS011;61637;47.760;-122.022;2022-12-13T09:56:01;19.9;;;17.9;;
73421;SDS011;61637;47.760;-122.022;2022-12-13T09:58:05;19.9;;;17.9;;
73421;SDS011;61637;47.760;-122.022;2022-12-13T10:00:04;19.3;;;17.6;;
73421;SDS011;61637;47.760;-122.022;2022-12-13T10:02:11;20.7;;;18.7;;
73421;SDS011;61637;47.760;-122.022;2022-12-13T10:04:01;18.9;;;17.0;;
73421;SDS011;61637;47.760;-122.022;2022-12-13T10:06:12;20.1;;;18.2;;
73421;SDS011;61637;47.760;-122.022;2022-12-13T10:08:05;19.5;;;17.8;;
73421;SDS011;61637;47.760;-122.022;2022-12-13T10:10:01;19.6;;;18.0;;
73421;SDS011;61637;47.760;-122.022;2022-12-13T10:12:01;20.3;;;18.4;;
73421;SDS011;61637;47.760;-122.022;2022-12-13T10:14:04;81.4;;;19.3;;
73421;SDS011;61637;47.760;-122.022;2022-12-13T10:16:06;46.3;;;18.3;;
73421;SDS011;61637;47.760;-122.022;2022-12-13T10:18:02;37.1;;;17.2;;
73421;SDS011;61637;47.760;-122.022;2022-12-13T10:20:03;88.8;;;19.0;;
73421;SDS011;61637;47.760;-122.022;2022-12-13T10:22:03;42.3;;;17.3;;
73421;SDS011;61637;47.760;-122.022;2022-12-13T10:24:11;182.5;;;19.4;;
73421;SDS011;61637;47.760;-122.022;2022-12-13T10:26:01;293.1;;;20.5;;
73421;SDS011;61637;47.760;-122.022;2022-12-13T10:28:03;349.4;;;21.9;;
73421;SDS011;61637;47.760;-122.022;2022-12-13T10:30:06;229.9;;;20.3;;
73421;SDS011;61637;47.760;-122.022;2022-12-13T10:32:11;191.4;;;18.0;;
73421;SDS011;61637;47.760;-122.022;2022-12-13T10:34:01;154.5;;;17.9;;
73421;SDS011;61637;47.760;-122.022;2022-12-13T10:36:04;33.7;;;15.8;;
73421;SDS011;61637;47.760;-122.022;2022-12-13T10:40:02;79.8;;;17.0;;
73421;SDS011;61637;47.760;-122.022;2022-12-13T10:42:03;24.6;;;15.9;;
73421;SDS011;61637;47.760;-122.022;2022-12-13T10:44:15;19.3;;;17.4;;
73421;SDS011;61637;47.760;-122.022;2022-12-13T10:46:03;19.4;;;17.6;;
73421;SDS011;61637;47.760;-122.022;2022-12-13T10:48:02;18.2;;;16.7;;
73421;SDS011;61637;47.760;-122.022;2022-12-13T10:50:03;19.0;;;17.5;;
73421;SDS011;61637;47.760;-122.022;2022-12-13T10:52:02;17.5;;;16.1;;
73421;SDS011;61637;47.760;-122.022;2022-12-13T10:54:01;17.9;;;16.4;;
73421;SDS011;61637;47.760;-122.022;2022-12-13T10:56:02;17.5;;;16.1;;
73421;SDS011;61637;47.760;-122.022;2022-12-13T10:58:03;17.3;;;15.9;;
73421;SDS011;61637;47.760;-122.022;2022-12-13T11:00:02;17.4;;;15.9;;
73421;SDS011;61637;47.760;-122.022;2022-12-13T11:02:02;16.8;;;15.4;;
73421;SDS011;61637;47.760;-122.022;2022-12-13T11:04:03;17.7;;;16.2;;
73421;SDS011;61637;47.760;-122.022;2022-12-13T11:06:03;17.7;;;16.2;;
73421;SDS011;61637;47.760;-122.022;2022-12-13T11:08:11;19.1;;;17.4;;
73421;SDS011;61637;47.760;-122.022;2022-12-13T11:10:21;17.1;;;15.5;;
73421;SDS011;61637;47.760;-122.022;2022-12-13T11:12:03;17.1;;;15.5;;
73421;SDS011;61637;47.760;-122.022;2022-12-13T11:14:01;17.8;;;16.1;;
73421;SDS011;61637;47.760;-122.022;2022-12-13T11:16:02;18.1;;;16.6;;
73421;SDS011;61637;47.760;-122.022;2022-12-13T11:18:03;17.0;;;15.6;;
73421;SDS011;61637;47.760;-122.022;2022-12-13T11:20:05;16.8;;;15.5;;
73421;SDS011;61637;47.760;-122.022;2022-12-13T11:22:01;17.9;;;16.4;;
73421;SDS011;61637;47.760;-122.022;2022-12-13T11:24:04;18.2;;;16.7;;
73421;SDS011;61637;47.760;-122.022;2022-12-13T11:26:09;17.2;;;15.6;;
73421;SDS011;61637;47.760;-122.022;2022-12-13T11:28:10;17.6;;;16.2;;
73421;SDS011;61637;47.760;-122.022;2022-12-13T11:30:09;18.0;;;16.5;;
73421;SDS011;61637;47.760;-122.022;2022-12-13T11:32:06;16.0;;;14.7;;
73421;SDS011;61637;47.760;-122.022;2022-12-13T11:34:08;16.5;;;15.0;;
73421;SDS011;61637;47.760;-122.022;2022-12-13T11:36:06;18.5;;;16.9;;
73421;SDS011;61637;47.760;-122.022;2022-12-13T11:38:06;17.5;;;15.8;;